La Grange, Arkansas
Current Conditions -  °F | °C
As of 5:15 PM on Friday 31 Oct 2014 (Local Time) from KUTA Reporting Station
Scattered Clouds Scattered Clouds  
Wind Chill: 55°   Ceiling: Unl
Heat Index: 55°   Visibility: 10mi
Dew Point: 32°   Wind: 22mph
Humidity: 41%   Direction: 330°NNW
Pressure: 30.2"   Gusts: 26mph
Location:  34.66°N, 90.73°W
Report Text: KUTA 312215Z AUTO 33019G23KT 10SM SCT055 13/00 A3020 RMK AO2
Loading
Personal Weather Stations






























Interactive Weather Map New forecast layout! Learn more

10-Day Weather Forecast

Advertisements
Track Severe Weather on mobile